Time;durP1;ratioP1;P1;durP2;ratioP2;P2;SDS_P1;SDS_P2;PMS_P1;PMS_P2;Temp;Humidity;BMP_temperature;BMP_pressure;BME280_temperature;BME280_humidity;BME280_pressure;Samples;Min_cycle;Max_cycle;Signal;HPM_P1;HPM_P2
2021/03/23 00:00:50;;;;;;;17.63;8.10;;;;;;;;;;5095504;28;20024;-58
2021/03/23 00:03:35;;;;;;;14.63;7.43;;;;;;;;;;5094801;28;20040;-58
2021/03/23 00:06:01;;;;;;;12.40;6.65;;;;;;;;;;5094578;28;20040;-59
2021/03/23 00:08:30;;;;;;;14.33;7.67;;;;;;;;;;5094713;28;20069;-56
2021/03/23 00:10:57;;;;;;;14.65;7.88;;;;;;;;;;5077013;28;20272;-57
2021/03/23 00:13:22;;;;;;;12.65;6.50;;;;;;;;;;5094606;28;20032;-57
2021/03/23 00:15:48;;;;;;;14.00;7.13;;;;;;;;;;5077100;28;20032;-57
2021/03/23 00:18:14;;;;;;;15.80;6.60;;;;;;;;;;5094662;28;20039;-57
2021/03/23 00:20:40;;;;;;;13.93;6.80;;;;;;;;;;5095162;28;20031;-57
2021/03/23 00:23:05;;;;;;;14.93;7.23;;;;;;;;;;5095032;28;20024;-58
2021/03/23 00:25:30;;;;;;;13.07;6.77;;;;;;;;;;5094606;28;20400;-58
2021/03/23 00:27:56;;;;;;;17.07;7.83;;;;;;;;;;5095583;28;20043;-57
2021/03/23 00:30:21;;;;;;;13.67;6.83;;;;;;;;;;5076267;28;20428;-57
2021/03/23 00:32:47;;;;;;;20.13;7.03;;;;;;;;;;5076824;28;20374;-57
2021/03/23 00:35:12;;;;;;;13.50;7.10;;;;;;;;;;5094808;28;20480;-57
2021/03/23 00:37:38;;;;;;;15.87;7.53;;;;;;;;;;5076033;28;20051;-57
2021/03/23 00:40:05;;;;;;;17.52;7.85;;;;;;;;;;5094849;28;20093;-58
2021/03/23 00:42:30;;;;;;;12.88;6.63;;;;;;;;;;5094020;28;20095;-57
2021/03/23 00:44:55;;;;;;;13.87;7.27;;;;;;;;;;5076333;28;20061;-57
2021/03/23 00:47:21;;;;;;;15.17;7.80;;;;;;;;;;5094303;28;20056;-58
2021/03/23 00:49:46;;;;;;;11.63;6.80;;;;;;;;;;5094615;28;20056;-57
2021/03/23 00:52:11;;;;;;;18.53;7.43;;;;;;;;;;5076492;28;20028;-57
2021/03/23 00:54:37;;;;;;;16.53;8.83;;;;;;;;;;5075677;28;20081;-57
2021/03/23 00:57:02;;;;;;;18.20;8.30;;;;;;;;;;5059384;28;20416;-56
2021/03/23 00:59:28;;;;;;;14.17;7.87;;;;;;;;;;5093910;28;20047;-57
2021/03/23 01:01:53;;;;;;;13.40;7.40;;;;;;;;;;5094499;28;20119;-57
2021/03/23 01:04:18;;;;;;;17.77;8.87;;;;;;;;;;5075455;28;20042;-58
2021/03/23 01:06:44;;;;;;;15.87;8.30;;;;;;;;;;5094520;28;20040;-57
2021/03/23 01:09:09;;;;;;;16.43;6.97;;;;;;;;;;5094010;28;20366;-58
2021/03/23 01:11:35;;;;;;;19.53;7.70;;;;;;;;;;5093565;28;20046;-57
2021/03/23 01:14:00;;;;;;;15.23;8.60;;;;;;;;;;5094112;28;20043;-58
2021/03/23 01:16:25;;;;;;;13.40;7.47;;;;;;;;;;5093126;28;20076;-57
2021/03/23 01:18:51;;;;;;;15.83;7.07;;;;;;;;;;5093775;28;20043;-58
2021/03/23 01:21:16;;;;;;;13.70;7.47;;;;;;;;;;5093728;28;20094;-58
2021/03/23 01:23:41;;;;;;;15.40;8.17;;;;;;;;;;5093077;28;20081;-57
2021/03/23 01:26:07;;;;;;;13.63;7.30;;;;;;;;;;5075702;28;20036;-58
2021/03/23 01:28:32;;;;;;;13.60;7.77;;;;;;;;;;5093254;28;20115;-58
2021/03/23 01:30:58;;;;;;;18.30;9.30;;;;;;;;;;5094166;28;20024;-57
2021/03/23 01:33:23;;;;;;;14.60;8.30;;;;;;;;;;5093072;28;20040;-57
2021/03/23 01:35:49;;;;;;;16.73;8.33;;;;;;;;;;5093962;28;20499;-57
2021/03/23 01:38:14;;;;;;;19.97;10.37;;;;;;;;;;5075379;28;20032;-57
2021/03/23 01:40:39;;;;;;;19.33;8.83;;;;;;;;;;5093024;28;20028;-57
2021/03/23 01:43:06;;;;;;;16.40;8.70;;;;;;;;;;5093461;28;20028;-57
2021/03/23 01:45:36;;;;;;;16.40;9.27;;;;;;;;;;5092907;28;20104;-57
2021/03/23 01:48:03;;;;;;;17.70;8.77;;;;;;;;;;5093186;28;20387;-58
2021/03/23 01:50:29;;;;;;;16.17;8.52;;;;;;;;;;5092834;28;20047;-58
2021/03/23 01:53:16;;;;;;;19.70;9.45;;;;;;;;;;5093434;28;20024;-57
2021/03/23 01:55:41;;;;;;;17.10;8.20;;;;;;;;;;5092699;28;20036;-58
2021/03/23 01:58:08;;;;;;;21.00;8.97;;;;;;;;;;5093262;28;20363;-58
2021/03/23 02:00:34;;;;;;;20.02;9.60;;;;;;;;;;5092876;28;20030;-58
2021/03/23 02:02:59;;;;;;;19.83;8.67;;;;;;;;;;5075239;28;20029;-57
2021/03/23 02:05:29;;;;;;;21.63;9.17;;;;;;;;;;5058317;28;20036;-58
2021/03/23 02:07:55;;;;;;;15.90;9.32;;;;;;;;;;5092432;28;20115;-57
2021/03/23 02:10:20;;;;;;;17.88;9.88;;;;;;;;;;5092788;28;20089;-58
2021/03/23 02:12:46;;;;;;;20.17;8.63;;;;;;;;;;5092376;28;20304;-58
2021/03/23 02:15:12;;;;;;;19.05;10.18;;;;;;;;;;5092874;28;20317;-57
2021/03/23 02:17:38;;;;;;;20.70;9.52;;;;;;;;;;5092396;28;20040;-56
2021/03/23 02:20:12;;;;;;;24.83;10.40;;;;;;;;;;5074601;28;20488;-57
2021/03/23 02:22:47;;;;;;;26.02;10.13;;;;;;;;;;5092073;28;20542;-56
2021/03/23 02:25:18;;;;;;;19.75;9.85;;;;;;;;;;5092919;28;20074;-57
2021/03/23 02:27:43;;;;;;;22.35;10.63;;;;;;;;;;5073804;28;20036;-58
2021/03/23 02:30:13;;;;;;;27.03;11.60;;;;;;;;;;5092668;28;20039;-58
2021/03/23 02:32:38;;;;;;;23.63;12.38;;;;;;;;;;5091967;28;20408;-58
2021/03/23 02:35:04;;;;;;;28.77;13.23;;;;;;;;;;5092478;28;20192;-58
2021/03/23 02:37:29;;;;;;;30.38;13.57;;;;;;;;;;5092197;28;20020;-57
2021/03/23 02:39:54;;;;;;;31.07;14.73;;;;;;;;;;5092189;28;20161;-57
2021/03/23 02:42:20;;;;;;;32.10;15.30;;;;;;;;;;5074353;28;20027;-56
2021/03/23 02:44:46;;;;;;;37.37;15.97;;;;;;;;;;5091707;28;20032;-58
2021/03/23 02:47:12;;;;;;;33.33;16.17;;;;;;;;;;5092271;28;20024;-57
2021/03/23 02:49:38;;;;;;;38.13;16.80;;;;;;;;;;5091364;28;20043;-58
2021/03/23 02:52:04;;;;;;;35.38;16.92;;;;;;;;;;5073919;28;20032;-57
2021/03/23 02:54:29;;;;;;;36.53;15.60;;;;;;;;;;5092024;28;20082;-56
2021/03/23 02:56:55;;;;;;;33.20;17.33;;;;;;;;;;5073282;28;20085;-58
2021/03/23 02:59:20;;;;;;;33.17;16.13;;;;;;;;;;5073866;28;20077;-57
2021/03/23 03:01:45;;;;;;;37.50;16.37;;;;;;;;;;5091562;28;20054;-58
2021/03/23 03:04:11;;;;;;;37.17;17.03;;;;;;;;;;5092003;28;20427;-58
2021/03/23 03:06:36;;;;;;;38.43;17.00;;;;;;;;;;5091406;28;20036;-56
2021/03/23 03:09:02;;;;;;;32.27;16.37;;;;;;;;;;5073925;28;20031;-57
2021/03/23 03:11:27;;;;;;;32.28;16.17;;;;;;;;;;5091753;28;20035;-57
2021/03/23 03:13:53;;;;;;;34.33;17.30;;;;;;;;;;5073213;28;20039;-58
2021/03/23 03:16:18;;;;;;;32.83;16.40;;;;;;;;;;5091599;28;20113;-58
2021/03/23 03:18:44;;;;;;;35.53;16.83;;;;;;;;;;5093433;28;20097;-59
2021/03/23 03:21:09;;;;;;;30.13;15.33;;;;;;;;;;5091838;28;20044;-57
2021/03/23 03:23:34;;;;;;;33.47;16.57;;;;;;;;;;5073731;28;20445;-58
2021/03/23 03:26:00;;;;;;;35.13;17.03;;;;;;;;;;5091255;28;20020;-57
2021/03/23 03:28:26;;;;;;;35.30;17.10;;;;;;;;;;5091780;28;20032;-58
2021/03/23 03:30:52;;;;;;;36.38;16.27;;;;;;;;;;5073123;28;20028;-58
2021/03/23 03:33:19;;;;;;;33.70;15.77;;;;;;;;;;5091643;28;20039;-58
2021/03/23 03:35:46;;;;;;;37.10;17.67;;;;;;;;;;5090987;28;20024;-58
2021/03/23 03:38:11;;;;;;;40.70;17.42;;;;;;;;;;5091301;28;20388;-58
2021/03/23 03:40:42;;;;;;;38.90;17.00;;;;;;;;;;5091752;28;20081;-58
2021/03/23 03:43:08;;;;;;;36.97;16.90;;;;;;;;;;5091641;28;20024;-58
2021/03/23 03:45:34;;;;;;;;;;;;;;;;;;5092009;28;20024;-57
2021/03/23 03:47:59;;;;;;;39.33;18.00;;;;;;;;;;5091088;28;20403;-57
2021/03/23 03:50:26;;;;;;;40.60;16.53;;;;;;;;;;5091477;28;20030;-58
2021/03/23 03:52:52;;;;;;;36.08;18.08;;;;;;;;;;5090893;28;20441;-57
2021/03/23 03:55:18;;;;;;;39.53;16.40;;;;;;;;;;5091180;28;20107;-59
2021/03/23 03:57:44;;;;;;;34.40;15.70;;;;;;;;;;5090768;28;20177;-57
2021/03/23 04:00:09;;;;;;;36.80;17.07;;;;;;;;;;5091457;28;20070;-58
2021/03/23 04:02:39;;;;;;;42.95;16.83;;;;;;;;;;5073833;28;20032;-57
2021/03/23 04:05:05;;;;;;;36.37;15.90;;;;;;;;;;5090459;28;20035;-57
2021/03/23 04:07:30;;;;;;;44.08;17.15;;;;;;;;;;5091300;28;20024;-57
2021/03/23 04:09:56;;;;;;;42.00;17.73;;;;;;;;;;5072581;28;20071;-58
2021/03/23 04:12:21;;;;;;;42.33;16.43;;;;;;;;;;5073234;28;20380;-58
2021/03/23 04:14:46;;;;;;;41.17;17.77;;;;;;;;;;5090587;28;20444;-58
2021/03/23 04:17:12;;;;;;;31.57;15.80;;;;;;;;;;5090824;28;20114;-58
2021/03/23 04:19:37;;;;;;;36.53;16.23;;;;;;;;;;5091233;28;20472;-57
2021/03/23 04:22:02;;;;;;;37.50;16.50;;;;;;;;;;5072460;28;20039;-58
2021/03/23 04:24:28;;;;;;;37.07;17.10;;;;;;;;;;5055304;28;20028;-58
2021/03/23 04:26:53;;;;;;;39.50;16.67;;;;;;;;;;5090795;28;20388;-57
2021/03/23 04:29:18;;;;;;;37.70;17.07;;;;;;;;;;5091194;28;20487;-57
2021/03/23 04:31:44;;;;;;;33.53;17.43;;;;;;;;;;5092281;28;20100;-57
2021/03/23 04:34:10;;;;;;;37.40;18.00;;;;;;;;;;5094320;28;20127;-57
2021/03/23 04:36:36;;;;;;;;;;;;;;;;;;5095335;28;20032;-58
2021/03/23 04:39:03;;;;;;;40.57;18.03;;;;;;;;;;5094231;28;20010;-57
2021/03/23 04:41:28;;;;;;;39.28;16.83;;;;;;;;;;5094825;28;20024;-57
2021/03/23 04:43:54;;;;;;;40.00;17.83;;;;;;;;;;5075907;28;20093;-58
2021/03/23 04:46:25;;;;;;;35.53;18.33;;;;;;;;;;5077111;28;20167;-56
2021/03/23 04:48:50;;;;;;;38.60;17.50;;;;;;;;;;5094597;28;20038;-57
2021/03/23 04:51:17;;;;;;;37.43;17.53;;;;;;;;;;5076505;28;20460;-57
2021/03/23 04:53:43;;;;;;;39.22;17.27;;;;;;;;;;5094529;28;20044;-58
2021/03/23 04:56:20;;;;;;;43.70;18.58;;;;;;;;;;5093760;28;20134;-57
2021/03/23 04:58:45;;;;;;;42.67;17.23;;;;;;;;;;5094554;28;20020;-57
2021/03/23 05:01:10;;;;;;;37.40;17.00;;;;;;;;;;5075631;28;20059;-58
2021/03/23 05:03:36;;;;;;;44.40;18.27;;;;;;;;;;5094447;28;20104;-58
2021/03/23 05:06:07;;;;;;;41.50;15.87;;;;;;;;;;5075624;28;20020;-58
2021/03/23 05:08:33;;;;;;;38.65;16.48;;;;;;;;;;5094330;28;20024;-57
2021/03/23 05:10:58;;;;;;;41.40;17.92;;;;;;;;;;5093536;28;20436;-58
2021/03/23 05:13:24;;;;;;;42.67;17.03;;;;;;;;;;5094155;28;20035;-58
2021/03/23 05:15:49;;;;;;;35.72;15.13;;;;;;;;;;5094274;28;20073;-58
2021/03/23 05:18:15;;;;;;;33.93;16.83;;;;;;;;;;5092891;28;20047;-58
2021/03/23 05:20:40;;;;;;;27.97;12.97;;;;;;;;;;5075971;28;20040;-57
2021/03/23 05:23:05;;;;;;;36.03;17.40;;;;;;;;;;5093383;28;20029;-58
2021/03/23 05:25:31;;;;;;;35.93;17.00;;;;;;;;;;5094037;28;20032;-58
2021/03/23 05:27:56;;;;;;;40.40;17.47;;;;;;;;;;5093397;28;20043;-58
2021/03/23 05:30:22;;;;;;;43.40;16.87;;;;;;;;;;5093939;28;20440;-59
2021/03/23 05:32:47;;;;;;;39.43;17.33;;;;;;;;;;5091848;28;20445;-58
2021/03/23 05:35:13;;;;;;;42.03;17.03;;;;;;;;;;5073762;28;20040;-57
2021/03/23 05:37:38;;;;;;;41.28;17.92;;;;;;;;;;5075111;28;20016;-57
2021/03/23 05:40:05;;;;;;;41.30;17.07;;;;;;;;;;5092539;28;20032;-57
2021/03/23 05:42:41;;;;;;;43.67;17.87;;;;;;;;;;5092144;28;20436;-57
2021/03/23 05:45:15;;;;;;;41.58;16.65;;;;;;;;;;5089804;28;20039;-57
2021/03/23 05:47:42;;;;;;;33.38;15.38;;;;;;;;;;5092938;28;20028;-58
2021/03/23 05:50:07;;;;;;;;;;;;;;;;;;5093228;28;20040;-59
2021/03/23 05:52:45;;;;;;;42.00;17.97;;;;;;;;;;5093414;28;20392;-58
2021/03/23 05:55:13;;;;;;;33.00;17.20;;;;;;;;;;5092706;28;20063;-58
2021/03/23 05:57:43;;;;;;;49.40;18.77;;;;;;;;;;5093359;28;20024;-58
2021/03/23 06:00:24;;;;;;;41.05;19.25;;;;;;;;;;5088725;28;20500;-58
2021/03/23 06:02:52;;;;;;;44.38;18.75;;;;;;;;;;5093321;28;20035;-59
2021/03/23 06:05:37;;;;;;;44.25;18.90;;;;;;;;;;5092343;28;20117;-59
2021/03/23 06:08:05;;;;;;;42.40;17.05;;;;;;;;;;5092536;28;20031;-59
2021/03/23 06:10:32;;;;;;;46.78;20.27;;;;;;;;;;5093070;28;20044;-59
2021/03/23 06:13:03;;;;;;;41.95;18.60;;;;;;;;;;5092691;28;20536;-59
2021/03/23 06:15:51;;;;;;;47.70;18.85;;;;;;;;;;5091565;28;20032;-59
2021/03/23 06:18:21;;;;;;;54.83;19.45;;;;;;;;;;5090419;28;20059;-59
2021/03/23 06:21:05;;;;;;;47.92;21.65;;;;;;;;;;5092796;28;20059;-59
2021/03/23 06:23:46;;;;;;;55.53;22.27;;;;;;;;;;5092857;28;20440;-59
2021/03/23 06:26:26;;;;;;;60.78;23.35;;;;;;;;;;5092172;28;20103;-58
2021/03/23 06:28:59;;;;;;;66.15;24.70;;;;;;;;;;5092245;28;20407;-59
2021/03/23 06:31:24;;;;;;;65.93;26.35;;;;;;;;;;5073307;28;20109;-58
2021/03/23 06:33:50;;;;;;;67.33;28.13;;;;;;;;;;5074338;28;20445;-58
2021/03/23 06:36:23;;;;;;;71.87;29.47;;;;;;;;;;5091924;28;20519;-59
2021/03/23 06:38:48;;;;;;;73.22;29.25;;;;;;;;;;5074181;28;20028;-58
2021/03/23 06:41:30;;;;;;;91.30;32.40;;;;;;;;;;5091915;28;20154;-58
2021/03/23 06:44:00;;;;;;;100.55;36.75;;;;;;;;;;5092024;28;20472;-59
2021/03/23 06:46:28;;;;;;;91.88;35.08;;;;;;;;;;5091624;28;20059;-58
2021/03/23 06:49:12;;;;;;;97.03;38.33;;;;;;;;;;5091506;28;20039;-58
2021/03/23 06:51:37;;;;;;;98.10;36.33;;;;;;;;;;5089708;28;20475;-57
2021/03/23 06:54:20;;;;;;;92.23;36.43;;;;;;;;;;5090791;28;20522;-58
2021/03/23 06:56:46;;;;;;;92.15;36.95;;;;;;;;;;5091362;28;20028;-57
2021/03/23 06:59:16;;;;;;;88.00;32.47;;;;;;;;;;5090388;28;20050;-58
2021/03/23 07:01:51;;;;;;;83.18;35.53;;;;;;;;;;5073206;28;20111;-57
2021/03/23 07:04:23;;;;;;;94.65;37.17;;;;;;;;;;5090909;28;20036;-57
2021/03/23 07:07:07;;;;;;;87.43;36.25;;;;;;;;;;5091951;28;20158;-58
2021/03/23 07:09:43;;;;;;;79.32;34.67;;;;;;;;;;5073317;28;20113;-57
2021/03/23 07:12:09;;;;;;;84.28;35.65;;;;;;;;;;5091662;28;20413;-58
2021/03/23 07:14:39;;;;;;;79.53;33.28;;;;;;;;;;5073790;28;20066;-58
2021/03/23 07:17:10;;;;;;;82.25;33.17;;;;;;;;;;5091613;28;20484;-58
2021/03/23 07:19:42;;;;;;;87.57;35.60;;;;;;;;;;5091890;28;20028;-58
2021/03/23 07:22:12;;;;;;;75.93;32.33;;;;;;;;;;5091703;28;20077;-59
2021/03/23 07:24:47;;;;;;;81.45;35.90;;;;;;;;;;5091754;28;20040;-59
2021/03/23 07:27:16;;;;;;;86.68;34.47;;;;;;;;;;5072914;28;20039;-58
2021/03/23 07:29:41;;;;;;;89.88;35.45;;;;;;;;;;5091400;28;20039;-58
2021/03/23 07:32:12;;;;;;;78.40;33.47;;;;;;;;;;5091546;28;20032;-58
2021/03/23 07:35:01;;;;;;;81.15;32.42;;;;;;;;;;5091614;28;20040;-57
2021/03/23 07:37:26;;;;;;;78.18;31.73;;;;;;;;;;5090797;28;20039;-58
2021/03/23 07:39:55;;;;;;;84.93;32.87;;;;;;;;;;5073340;28;20053;-57
2021/03/23 07:42:25;;;;;;;78.97;33.33;;;;;;;;;;5090661;28;20031;-58
2021/03/23 07:45:10;;;;;;;84.32;33.20;;;;;;;;;;5073357;28;20400;-58
2021/03/23 07:47:39;;;;;;;84.45;33.50;;;;;;;;;;5038818;28;20127;-57
2021/03/23 07:50:05;;;;;;;78.05;30.35;;;;;;;;;;5091438;28;20177;-59
2021/03/23 07:52:38;;;;;;;79.63;30.00;;;;;;;;;;5090249;28;20115;-57
2021/03/23 07:55:03;;;;;;;85.25;30.55;;;;;;;;;;5091272;28;20123;-58
2021/03/23 07:57:29;;;;;;;82.40;28.42;;;;;;;;;;5072608;28;20253;-58
2021/03/23 08:00:13;;;;;;;78.37;31.27;;;;;;;;;;5056245;28;20032;-58
2021/03/23 08:02:57;;;;;;;83.00;31.38;;;;;;;;;;5090716;28;20056;-58
2021/03/23 08:05:37;;;;;;;71.90;27.92;;;;;;;;;;5090706;28;20043;-57
2021/03/23 08:08:06;;;;;;;72.68;27.02;;;;;;;;;;5094929;28;20494;-58
2021/03/23 08:10:49;;;;;;;79.90;30.20;;;;;;;;;;5094379;28;20475;-58
2021/03/23 08:13:31;;;;;;;72.78;28.83;;;;;;;;;;5095127;28;20028;-57
2021/03/23 08:16:03;;;;;;;74.05;29.17;;;;;;;;;;5095362;28;20046;-58
2021/03/23 08:18:44;;;;;;;72.90;28.27;;;;;;;;;;5094493;28;20388;-57
2021/03/23 08:21:12;;;;;;;72.60;29.23;;;;;;;;;;5095166;28;20051;-59
2021/03/23 08:23:56;;;;;;;76.68;28.92;;;;;;;;;;5094188;28;20031;-58
2021/03/23 08:26:40;;;;;;;85.90;32.33;;;;;;;;;;5094365;28;20055;-57
2021/03/23 08:29:08;;;;;;;83.03;29.35;;;;;;;;;;5076623;28;20046;-57
2021/03/23 08:31:48;;;;;;;68.78;28.15;;;;;;;;;;5075888;28;20111;-58
2021/03/23 08:34:17;;;;;;;74.82;28.48;;;;;;;;;;5094912;28;20044;-59
2021/03/23 08:36:42;;;;;;;66.60;26.25;;;;;;;;;;5094191;28;20063;-58
2021/03/23 08:39:10;;;;;;;70.33;27.17;;;;;;;;;;5059845;28;20071;-58
2021/03/23 08:41:36;;;;;;;81.30;29.52;;;;;;;;;;5094128;28;20038;-58
2021/03/23 08:44:01;;;;;;;75.20;28.03;;;;;;;;;;5094862;28;20447;-58
2021/03/23 08:46:28;;;;;;;72.07;25.67;;;;;;;;;;5094163;28;20024;-57
2021/03/23 08:48:57;;;;;;;68.60;27.42;;;;;;;;;;5094575;28;20034;-58
2021/03/23 08:51:24;;;;;;;74.45;28.88;;;;;;;;;;5093786;28;20020;-58
2021/03/23 08:53:54;;;;;;;61.95;28.63;;;;;;;;;;5094183;28;20156;-58
2021/03/23 08:56:38;;;;;;;69.68;26.23;;;;;;;;;;5094120;28;20436;-58
2021/03/23 08:59:03;;;;;;;71.03;26.95;;;;;;;;;;5094057;28;20034;-58
2021/03/23 09:01:31;;;;;;;71.63;26.40;;;;;;;;;;5075506;28;20124;-58
2021/03/23 09:04:02;;;;;;;66.70;26.40;;;;;;;;;;5094062;28;20103;-58
2021/03/23 09:06:45;;;;;;;67.63;24.88;;;;;;;;;;5075473;28;20418;-58
2021/03/23 09:09:18;;;;;;;65.50;25.98;;;;;;;;;;5075983;28;20039;-59
2021/03/23 09:11:46;;;;;;;59.05;23.83;;;;;;;;;;5093232;28;20046;-60
2021/03/23 09:14:16;;;;;;;63.25;24.63;;;;;;;;;;5094250;28;20138;-57
2021/03/23 09:16:43;;;;;;;63.53;25.58;;;;;;;;;;5093501;28;20028;-58
2021/03/23 09:19:09;;;;;;;59.08;24.58;;;;;;;;;;5094072;28;20044;-58
2021/03/23 09:22:04;;;;;;;62.55;24.92;;;;;;;;;;5075400;28;20341;-56
2021/03/23 09:24:31;;;;;;;57.17;24.48;;;;;;;;;;5053343;28;20056;-57
2021/03/23 09:26:57;;;;;;;62.55;25.45;;;;;;;;;;5093859;28;20549;-58
2021/03/23 09:29:32;;;;;;;59.05;24.27;;;;;;;;;;5075645;28;20111;-59
2021/03/23 09:32:00;;;;;;;65.30;23.98;;;;;;;;;;5093462;28;20075;-59
2021/03/23 09:34:44;;;;;;;65.32;25.85;;;;;;;;;;5058543;28;20048;-58
2021/03/23 09:37:28;;;;;;;69.22;24.98;;;;;;;;;;5093534;28;20028;-57
2021/03/23 09:39:53;;;;;;;71.28;26.02;;;;;;;;;;5074884;28;20479;-58
2021/03/23 09:42:20;;;;;;;61.13;24.00;;;;;;;;;;5093547;28;20052;-58
2021/03/23 09:44:56;;;;;;;70.47;24.75;;;;;;;;;;5092902;28;20032;-58
2021/03/23 09:47:36;;;;;;;63.78;24.60;;;;;;;;;;5075383;28;20334;-58
2021/03/23 09:50:02;;;;;;;68.60;26.77;;;;;;;;;;5093322;28;20093;-58
2021/03/23 09:52:30;;;;;;;57.63;24.10;;;;;;;;;;5093280;28;20016;-57
2021/03/23 09:54:58;;;;;;;68.65;25.05;;;;;;;;;;5092692;28;20039;-58
2021/03/23 09:57:24;;;;;;;71.30;26.60;;;;;;;;;;5093130;28;20110;-58
2021/03/23 09:59:50;;;;;;;;;;;;;;;;;;5074512;28;20036;-57
2021/03/23 10:02:30;;;;;;;66.83;25.07;;;;;;;;;;5093126;28;19904;-57
2021/03/23 10:04:56;;;;;;;63.25;26.33;;;;;;;;;;5092389;28;20040;-58
2021/03/23 10:07:36;;;;;;;66.05;25.33;;;;;;;;;;5074916;28;20472;-58
2021/03/23 10:10:07;;;;;;;61.70;24.92;;;;;;;;;;5093032;28;20028;-58
2021/03/23 10:12:33;;;;;;;62.03;25.23;;;;;;;;;;5092754;28;20024;-58
2021/03/23 10:14:58;;;;;;;61.73;25.63;;;;;;;;;;5057464;28;20033;-59
2021/03/23 10:17:27;;;;;;;65.77;27.87;;;;;;;;;;5092679;28;20170;-57
2021/03/23 10:19:54;;;;;;;65.75;26.63;;;;;;;;;;5092268;28;20039;-59
2021/03/23 10:22:30;;;;;;;71.78;26.08;;;;;;;;;;5074475;28;20032;-59
2021/03/23 10:24:56;;;;;;;76.55;28.80;;;;;;;;;;5091862;28;20630;-59
2021/03/23 10:27:26;;;;;;;67.97;27.60;;;;;;;;;;5092696;28;20460;-59
2021/03/23 10:29:54;;;;;;;74.68;28.52;;;;;;;;;;5091414;28;20055;-58
2021/03/23 10:32:20;;;;;;;70.78;28.48;;;;;;;;;;5092631;28;20046;-59
2021/03/23 10:34:46;;;;;;;;;;;;;;;;;;5092217;28;20036;-57
2021/03/23 10:37:19;;;;;;;70.10;26.40;;;;;;;;;;5092129;28;19908;-59
2021/03/23 10:39:44;;;;;;;74.30;30.13;;;;;;;;;;5091939;28;20093;-58
2021/03/23 10:42:25;;;;;;;65.03;27.40;;;;;;;;;;5092184;28;20036;-58
2021/03/23 10:45:10;;;;;;;65.05;25.48;;;;;;;;;;5091624;28;20059;-58
2021/03/23 10:47:38;;;;;;;70.28;27.90;;;;;;;;;;5091084;28;20048;-59
2021/03/23 10:50:14;;;;;;;73.75;27.50;;;;;;;;;;5073983;28;20028;-58
2021/03/23 10:52:39;;;;;;;73.82;27.92;;;;;;;;;;5073383;28;20039;-57
2021/03/23 10:55:25;;;;;;;70.70;27.40;;;;;;;;;;5092227;28;20044;-59
2021/03/23 10:58:11;;;;;;;73.18;26.13;;;;;;;;;;5073112;28;20361;-58
2021/03/23 11:00:37;;;;;;;68.50;26.30;;;;;;;;;;5092051;28;20058;-58
2021/03/23 11:03:20;;;;;;;66.25;26.38;;;;;;;;;;5090990;28;20147;-58
2021/03/23 11:05:47;;;;;;;68.00;26.75;;;;;;;;;;5091161;28;20111;-58
2021/03/23 11:08:13;;;;;;;69.57;26.95;;;;;;;;;;5091755;28;20028;-58
2021/03/23 11:10:39;;;;;;;63.95;27.92;;;;;;;;;;5091690;28;20035;-59
2021/03/23 11:13:04;;;;;;;60.97;25.23;;;;;;;;;;5091261;28;20028;-59
2021/03/23 11:15:35;;;;;;;69.07;26.60;;;;;;;;;;5091704;28;20464;-58
2021/03/23 11:18:01;;;;;;;67.80;26.27;;;;;;;;;;5072762;28;20044;-62
2021/03/23 11:20:27;;;;;;;67.68;27.17;;;;;;;;;;5073389;28;20438;-58
2021/03/23 11:22:55;;;;;;;67.40;26.67;;;;;;;;;;5090854;28;20031;-58
2021/03/23 11:25:23;;;;;;;64.25;25.92;;;;;;;;;;5091644;28;20036;-59
2021/03/23 11:27:48;;;;;;;62.53;25.90;;;;;;;;;;5090935;28;20471;-58
2021/03/23 11:30:14;;;;;;;68.82;27.50;;;;;;;;;;5091741;28;20032;-57
2021/03/23 11:32:39;;;;;;;68.40;26.75;;;;;;;;;;5091627;28;20055;-58
2021/03/23 11:35:06;;;;;;;72.50;26.97;;;;;;;;;;5090833;28;20052;-60
2021/03/23 11:37:31;;;;;;;74.90;28.63;;;;;;;;;;5091654;28;20036;-57
2021/03/23 11:39:56;;;;;;;73.20;27.57;;;;;;;;;;5091083;28;20502;-57
2021/03/23 11:42:27;;;;;;;71.93;28.43;;;;;;;;;;5072484;28;20074;-58
2021/03/23 11:44:54;;;;;;;68.10;27.08;;;;;;;;;;5090943;28;20114;-58
2021/03/23 11:47:25;;;;;;;64.55;26.95;;;;;;;;;;5073301;28;20115;-59
2021/03/23 11:49:57;;;;;;;58.60;24.08;;;;;;;;;;5072639;28;20032;-58
2021/03/23 11:52:23;;;;;;;69.32;29.17;;;;;;;;;;5091081;28;20028;-59
2021/03/23 11:54:48;;;;;;;70.20;27.70;;;;;;;;;;5090498;28;20035;-58
2021/03/23 11:57:14;;;;;;;63.60;27.63;;;;;;;;;;5091392;28;20040;-58
2021/03/23 11:59:39;;;;;;;77.35;28.60;;;;;;;;;;5091363;28;20108;-57
2021/03/23 12:02:05;;;;;;;80.33;28.07;;;;;;;;;;5090477;28;20510;-57
2021/03/23 12:04:30;;;;;;;72.57;27.67;;;;;;;;;;5091315;28;20039;-58
2021/03/23 12:07:01;;;;;;;79.43;29.73;;;;;;;;;;5090610;28;20028;-58
2021/03/23 12:09:32;;;;;;;76.78;30.48;;;;;;;;;;5091253;28;20075;-58
2021/03/23 12:12:02;;;;;;;77.15;29.30;;;;;;;;;;5090696;28;20031;-58
2021/03/23 12:14:48;;;;;;;73.47;29.42;;;;;;;;;;5072655;28;20040;-58
2021/03/23 12:17:15;;;;;;;67.32;24.77;;;;;;;;;;5072169;28;20412;-59
2021/03/23 12:19:48;;;;;;;75.43;30.25;;;;;;;;;;5090738;28;20063;-59
2021/03/23 12:22:14;;;;;;;69.68;28.13;;;;;;;;;;5090309;28;20032;-59
2021/03/23 12:24:40;;;;;;;68.15;28.35;;;;;;;;;;5072836;28;20051;-58
2021/03/23 12:27:05;;;;;;;68.95;30.42;;;;;;;;;;5090251;28;20368;-58
2021/03/23 12:29:31;;;;;;;63.33;29.15;;;;;;;;;;5073007;28;20082;-58
2021/03/23 12:31:56;;;;;;;70.47;29.37;;;;;;;;;;5090308;28;20028;-58
2021/03/23 12:34:22;;;;;;;77.20;28.80;;;;;;;;;;5072593;28;20075;-58
2021/03/23 12:36:48;;;;;;;70.82;27.85;;;;;;;;;;5090508;28;20063;-59
2021/03/23 12:39:16;;;;;;;74.53;28.85;;;;;;;;;;5089652;28;20344;-58
2021/03/23 12:41:41;;;;;;;87.53;31.63;;;;;;;;;;5090737;28;20111;-57
2021/03/23 12:44:07;;;;;;;71.57;28.30;;;;;;;;;;5090129;28;20490;-58
2021/03/23 12:46:32;;;;;;;68.97;29.27;;;;;;;;;;5090976;28;20127;-58
2021/03/23 12:48:58;;;;;;;66.23;27.67;;;;;;;;;;5072001;28;20056;-58
2021/03/23 12:51:29;;;;;;;74.97;30.40;;;;;;;;;;5072492;28;20027;-58
2021/03/23 12:53:55;;;;;;;76.65;30.42;;;;;;;;;;5093967;28;20202;-58
2021/03/23 12:56:20;;;;;;;71.80;30.38;;;;;;;;;;5093538;28;20380;-57
2021/03/23 12:58:46;;;;;;;73.78;30.10;;;;;;;;;;5094020;28;20038;-58
2021/03/23 13:01:12;;;;;;;72.65;29.38;;;;;;;;;;5093248;28;20043;-59
2021/03/23 13:03:38;;;;;;;71.75;28.60;;;;;;;;;;5093969;28;20427;-58
2021/03/23 13:06:03;;;;;;;71.67;28.07;;;;;;;;;;5075411;28;20024;-59
2021/03/23 13:08:34;;;;;;;76.32;28.83;;;;;;;;;;5093934;28;20043;-62
2021/03/23 13:11:05;;;;;;;68.07;27.75;;;;;;;;;;5075041;28;20036;-59
2021/03/23 13:13:49;;;;;;;68.75;28.38;;;;;;;;;;5094012;28;20028;-59
2021/03/23 13:16:15;;;;;;;71.32;29.00;;;;;;;;;;5058357;28;20433;-59
2021/03/23 13:18:41;;;;;;;68.25;28.10;;;;;;;;;;5093338;28;20048;-59
2021/03/23 13:21:07;;;;;;;67.40;27.47;;;;;;;;;;5093086;28;20039;-57
2021/03/23 13:23:40;;;;;;;65.38;27.10;;;;;;;;;;5075205;28;20035;-59
2021/03/23 13:26:06;;;;;;;61.10;25.55;;;;;;;;;;5074739;28;20043;-58
2021/03/23 13:28:37;;;;;;;58.85;25.77;;;;;;;;;;5093610;28;20388;-58
2021/03/23 13:31:02;;;;;;;60.13;27.08;;;;;;;;;;5093006;28;20028;-59
2021/03/23 13:33:31;;;;;;;59.30;26.83;;;;;;;;;;5075583;28;20035;-59
2021/03/23 13:35:56;;;;;;;52.83;25.05;;;;;;;;;;5093508;28;20079;-59
2021/03/23 13:38:22;;;;;;;56.73;26.57;;;;;;;;;;5093279;28;20067;-58
2021/03/23 13:40:47;;;;;;;55.03;25.10;;;;;;;;;;5093363;28;20035;-58
2021/03/23 13:43:19;;;;;;;53.70;25.20;;;;;;;;;;5092864;28;20039;-58
2021/03/23 13:46:06;;;;;;;57.67;24.70;;;;;;;;;;5093444;28;20036;-57
2021/03/23 13:48:32;;;;;;;53.15;24.48;;;;;;;;;;5074995;28;20062;-58
2021/03/23 13:50:58;;;;;;;52.83;24.08;;;;;;;;;;5093023;28;20517;-58
2021/03/23 13:53:23;;;;;;;;;;;;;;;;;;5074742;28;20250;-58
2021/03/23 13:55:49;;;;;;;50.07;23.50;;;;;;;;;;5074543;28;20209;-58
2021/03/23 13:58:15;;;;;;;46.78;21.70;;;;;;;;;;5074215;28;20041;-57
2021/03/23 14:00:43;;;;;;;45.13;21.83;;;;;;;;;;5093129;28;20043;-59
2021/03/23 14:03:09;;;;;;;45.17;21.23;;;;;;;;;;5092063;28;20028;-57
2021/03/23 14:05:34;;;;;;;40.90;21.07;;;;;;;;;;5091890;28;20337;-57
2021/03/23 14:08:01;;;;;;;43.58;21.75;;;;;;;;;;5074465;28;20028;-58
2021/03/23 14:10:26;;;;;;;;;;;;;;;;;;5077557;28;20494;-58
2021/03/23 14:12:53;;;;;;;44.27;21.43;;;;;;;;;;5081093;28;19908;-58
2021/03/23 14:15:23;;;;;;;38.28;20.23;;;;;;;;;;5078612;28;20066;-58
2021/03/23 14:17:48;;;;;;;48.13;24.37;;;;;;;;;;5087657;28;20049;-58
2021/03/23 14:20:15;;;;;;;47.17;23.27;;;;;;;;;;5082955;28;20326;-57
2021/03/23 14:22:41;;;;;;;41.20;23.67;;;;;;;;;;5092694;28;20437;-58
2021/03/23 14:25:15;;;;;;;41.58;20.70;;;;;;;;;;5092143;28;20264;-59
2021/03/23 14:27:40;;;;;;;45.33;21.63;;;;;;;;;;5091994;28;20059;-58
2021/03/23 14:30:06;;;;;;;47.03;22.07;;;;;;;;;;5086923;28;20674;-57